Time;durP1;ratioP1;P1;durP2;ratioP2;P2;SDS_P1;SDS_P2;PMS_P1;PMS_P2;Temp;Humidity;BMP_temperature;BMP_pressure;BME280_temperature;BME280_humidity;BME280_pressure;Samples;Min_cycle;Max_cycle;Signal;HPM_P1;HPM_P2
2023/01/12 00:01:06;;;;;;;4.85;1.10;;;;;;;6.87;89.94;100402.56;5980870;29;20423;-74
2023/01/12 00:04:02;;;;;;;4.68;1.13;;;;;;;6.82;90.71;100398.63;5980095;29;20394;-75
2023/01/12 00:06:58;;;;;;;8.45;1.40;;;;;;;6.73;91.19;100379.16;5980637;29;20065;-75
2023/01/12 00:09:53;;;;;;;6.30;1.25;;;;;;;6.65;91.67;100376.34;5979528;28;20039;-75
2023/01/12 00:12:48;;;;;;;8.10;1.37;;;;;;;6.75;92.36;100387.78;5980047;29;20522;-73
2023/01/12 00:18:58;;;;;;;8.02;1.25;;;;;;;6.79;91.86;100372.53;5980667;29;20035;-75
2023/01/12 00:21:58;;;;;;;5.93;1.20;;;;;;;6.84;91.15;100362.44;5962552;29;20031;-74
2023/01/12 00:24:54;;;;;;;15.80;1.52;;;;;;;6.92;91.44;100358.19;5980319;29;20491;-73
2023/01/12 00:27:49;;;;;;;5.53;1.20;;;;;;;6.97;90.65;100360.41;5980218;29;20058;-75
2023/01/12 00:30:46;;;;;;;4.10;0.80;;;;;;;7.05;90.33;100364.06;5980157;29;20047;-74
2023/01/12 00:33:41;;;;;;;5.10;1.08;;;;;;;7.08;90.23;100369.09;5979717;29;20047;-75
2023/01/12 00:36:37;;;;;;;6.63;1.23;;;;;;;6.99;90.01;100354.03;5980130;29;20135;-73
2023/01/12 00:39:35;;;;;;;8.35;2.72;;;;;;;7.18;89.28;100369.09;5980035;29;20055;-75
2023/01/12 00:45:51;;;;;;;4.70;0.70;;;;;;;7.25;88.97;100365.00;5974153;28;20122;-75
2023/01/12 00:48:46;;;;;;;2.83;0.95;;;;;;;7.24;88.73;100359.84;5979974;29;20027;-76
2023/01/12 00:51:42;;;;;;;4.37;0.93;;;;;;;7.10;89.50;100361.88;5979806;29;20113;-76
2023/01/12 00:54:37;;;;;;;3.05;1.10;;;;;;;7.09;90.14;100367.28;5979473;29;20031;-75
2023/01/12 00:57:33;;;;;;;5.60;0.90;;;;;;;7.05;91.20;100374.63;5978818;29;20039;-76
2023/01/12 01:00:28;;;;;;;10.30;1.73;;;;;;;7.09;91.33;100369.91;5979794;29;20031;-75
2023/01/12 01:03:23;;;;;;;8.87;1.60;;;;;;;6.96;91.90;100370.13;5979145;29;20039;-76
2023/01/12 01:06:19;;;;;;;5.53;1.17;;;;;;;6.90;92.19;100373.28;5979618;29;20066;-76
2023/01/12 01:09:15;;;;;;;5.15;1.02;;;;;;;6.98;93.25;100372.66;5979519;29;20035;-75
2023/01/12 01:12:10;;;;;;;3.27;1.07;;;;;;;6.91;93.64;100390.78;5978954;29;20065;-74
2023/01/12 01:15:06;;;;;;;5.37;0.97;;;;;;;6.91;94.45;100380.22;5979141;29;20075;-75
2023/01/12 01:18:01;;;;;;;5.90;1.08;;;;;;;6.72;95.34;100353.78;5979414;29;20278;-77
2023/01/12 01:20:57;;;;;;;9.73;1.77;;;;;;;6.87;95.60;100365.66;5978824;28;20546;-76
2023/01/12 01:23:52;;;;;;;4.47;1.10;;;;;;;6.83;95.93;100369.50;5965765;29;20557;-75
2023/01/12 01:26:48;;;;;;;8.63;1.10;;;;;;;6.80;96.43;100353.09;5979130;29;20102;-76
2023/01/12 01:29:44;;;;;;;6.80;1.50;;;;;;;6.78;95.99;100353.25;5979139;29;20027;-75
2023/01/12 01:32:39;;;;;;;7.93;1.37;;;;;;;6.83;95.69;100340.53;5978560;29;20415;-76
2023/01/12 01:35:35;;;;;;;6.43;1.13;;;;;;;6.88;95.37;100356.75;5979065;29;20023;-76
2023/01/12 01:38:31;;;;;;;6.60;1.17;;;;;;;6.85;95.51;100353.59;5979339;29;20126;-74
2023/01/12 01:41:28;;;;;;;5.03;1.45;;;;;;;6.88;95.02;100362.03;5979076;29;20039;-75
2023/01/12 01:44:29;;;;;;;3.40;1.00;;;;;;;6.97;94.66;100376.22;5978910;28;20037;-76
2023/01/12 01:47:29;;;;;;;4.25;1.00;;;;;;;6.92;94.09;100354.72;5978760;29;20055;-76
2023/01/12 01:50:27;;;;;;;3.30;0.88;;;;;;;7.04;94.01;100358.91;5979356;29;20043;-76
2023/01/12 01:53:24;;;;;;;4.72;1.25;;;;;;;7.18;93.05;100346.22;5978386;29;20035;-76
2023/01/12 01:56:24;;;;;;;2.95;1.10;;;;;;;7.17;92.54;100339.25;5948795;29;20049;-76
2023/01/12 01:59:23;;;;;;;6.45;1.27;;;;;;;7.31;92.11;100353.06;5978959;29;20098;-75
2023/01/12 02:02:19;;;;;;;9.23;1.48;;;;;;;7.42;91.04;100350.34;5977523;29;20035;-76
2023/01/12 02:05:20;;;;;;;1.97;0.90;;;;;;;7.44;91.04;100358.94;5954555;29;20042;-76
2023/01/12 02:08:20;;;;;;;;;;;;;;;7.53;90.57;100369.50;5961484;29;20027;-76
2023/01/12 02:18:03;;;;;;;3.25;0.82;;;;;;;7.61;90.08;100335.34;5978944;29;20039;-76
2023/01/12 02:21:21;;;;;;;1.65;0.77;;;;;;;7.65;90.42;100312.19;5978429;29;20031;-74
2023/01/12 02:24:26;;;;;;;4.15;0.80;;;;;;;7.63;91.66;100322.03;5977966;29;20445;-74
2023/01/12 02:27:29;;;;;;;3.45;1.00;;;;;;;7.53;93.37;100321.16;5951438;29;20130;-75
2023/01/12 02:30:46;;;;;;;3.20;1.08;;;;;;;7.29;94.90;100318.91;5951394;29;20043;-75
2023/01/12 02:33:58;;;;;;;3.90;1.60;;;;;;;7.35;95.99;100322.81;5963927;29;20035;-76
2023/01/12 02:37:35;;;;;;;3.28;0.75;;;;;;;7.35;96.02;100326.28;5965273;29;20043;-77
2023/01/12 02:40:58;;;;;;;4.50;0.95;;;;;;;7.25;96.01;100298.22;5888115;29;20045;-76
2023/01/12 02:43:53;;;;;;;2.35;0.80;;;;;;;7.27;96.57;100304.19;5891192;29;20057;-75
2023/01/12 02:46:50;;;;;;;3.42;0.70;;;;;;;7.31;96.72;100310.88;5966153;29;20113;-74
2023/01/12 02:49:48;;;;;;;3.03;0.98;;;;;;;7.23;96.72;100286.97;5965286;29;20094;-75
2023/01/12 02:52:45;;;;;;;3.95;0.77;;;;;;;7.30;96.78;100290.75;5979620;29;20035;-76
2023/01/12 02:55:42;;;;;;;4.82;1.00;;;;;;;7.32;96.51;100299.34;5965164;29;20118;-75
2023/01/12 02:58:43;;;;;;;3.42;0.82;;;;;;;7.30;96.83;100280.19;5982167;29;20043;-76
2023/01/12 03:01:40;;;;;;;5.07;0.70;;;;;;;7.41;96.07;100290.63;5965199;29;20577;-76
2023/01/12 03:04:35;;;;;;;3.67;1.17;;;;;;;7.45;95.50;100281.44;5964283;29;20426;-73
2023/01/12 03:07:38;;;;;;;2.75;1.00;;;;;;;7.43;95.49;100283.41;5981173;29;20023;-76
2023/01/12 03:10:41;;;;;;;4.10;1.63;;;;;;;7.48;94.89;100287.28;5982214;29;20031;-75
2023/01/12 03:13:41;;;;;;;3.83;0.85;;;;;;;7.59;93.98;100295.09;5981327;29;20537;-75
2023/01/12 03:16:37;;;;;;;5.18;0.98;;;;;;;7.54;93.59;100276.19;5964750;29;20446;-75
2023/01/12 03:19:34;;;;;;;1.70;0.60;;;;;;;7.61;93.09;100279.94;5964447;29;20031;-77
2023/01/12 03:22:31;;;;;;;4.43;0.77;;;;;;;7.70;92.35;100278.28;5964313;29;20486;-75
2023/01/12 03:25:27;;;;;;;3.30;0.82;;;;;;;7.70;92.10;100281.78;5964067;29;20057;-75
2023/01/12 03:28:26;;;;;;;2.55;0.50;;;;;;;7.64;92.04;100269.13;5981773;29;20118;-76
2023/01/12 03:31:21;;;;;;;6.22;1.10;;;;;;;7.61;92.42;100274.66;5964454;29;20054;-75
2023/01/12 03:34:17;;;;;;;2.40;0.50;;;;;;;7.56;92.96;100262.84;5979979;29;20479;-76
2023/01/12 03:37:30;;;;;;;1.60;0.57;;;;;;;7.53;93.89;100274.53;5964676;29;20114;-76
2023/01/12 03:40:35;;;;;;;4.03;0.75;;;;;;;7.52;94.11;100279.94;5964227;29;20295;-76
2023/01/12 03:43:40;;;;;;;5.97;0.80;;;;;;;7.49;94.46;100267.03;5962949;28;20057;-77
2023/01/12 03:46:39;;;;;;;2.63;0.50;;;;;;;7.49;94.39;100272.31;5964064;29;20360;-77
2023/01/12 03:49:42;;;;;;;2.38;0.52;;;;;;;7.50;94.08;100264.25;5963953;29;20475;-75
2023/01/12 03:52:39;;;;;;;1.33;0.57;;;;;;;7.48;93.93;100252.16;5980375;29;20043;-76
2023/01/12 03:55:35;;;;;;;7.03;0.98;;;;;;;7.57;93.89;100264.53;5963331;29;20046;-74
2023/01/12 03:58:31;;;;;;;3.63;0.70;;;;;;;7.57;93.89;100252.19;5963776;29;20031;-75
2023/01/12 04:01:26;;;;;;;5.15;1.05;;;;;;;7.60;94.18;100266.91;5980918;29;20062;-75
2023/01/12 04:04:22;;;;;;;3.83;0.70;;;;;;;7.59;94.54;100259.94;5979876;29;20042;-77
2023/01/12 04:07:17;;;;;;;6.20;0.73;;;;;;;7.47;94.71;100242.59;5980841;29;20027;-77
2023/01/12 04:10:12;;;;;;;1.53;0.53;;;;;;;7.53;95.08;100260.50;5980786;29;20495;-75
2023/01/12 04:13:08;;;;;;;0.97;0.60;;;;;;;7.56;94.59;100260.22;5980058;29;20281;-77
2023/01/12 04:16:03;;;;;;;2.17;0.50;;;;;;;7.58;94.67;100255.66;5980969;29;20394;-76
2023/01/12 04:18:58;;;;;;;3.72;0.60;;;;;;;7.55;95.00;100253.28;5980785;29;20033;-75
2023/01/12 04:25:09;;;;;;;2.70;0.60;;;;;;;7.53;95.39;100244.66;5980619;29;20032;-76
2023/01/12 04:28:04;;;;;;;1.13;0.38;;;;;;;7.57;95.82;100248.72;5980003;29;20049;-76
2023/01/12 04:30:59;;;;;;;1.37;0.63;;;;;;;7.51;96.44;100241.34;5980463;29;20035;-75
2023/01/12 04:33:55;;;;;;;0.97;0.40;;;;;;;7.49;97.10;100235.38;5979461;29;20281;-76
2023/01/12 04:36:50;;;;;;;0.63;0.43;;;;;;;7.41;98.23;100230.78;5979626;29;20043;-76
2023/01/12 04:39:45;;;;;;;1.40;0.50;;;;;;;7.39;99.44;100234.53;5980009;29;20489;-75
2023/01/12 04:43:01;;;;;;;1.27;0.47;;;;;;;7.27;100.00;100210.09;5979055;29;20039;-75
2023/01/12 04:45:56;;;;;;;0.75;0.40;;;;;;;7.24;100.00;100217.44;5974796;28;20090;-77
2023/01/12 04:48:51;;;;;;;1.70;0.83;;;;;;;7.19;100.00;100208.16;5980265;29;20410;-74
2023/01/12 04:51:46;;;;;;;2.57;0.67;;;;;;;7.22;100.00;100209.69;5979802;29;20031;-75
2023/01/12 04:54:42;;;;;;;1.00;0.60;;;;;;;7.31;100.00;100216.75;5979242;28;20047;-74
2023/01/12 04:57:37;;;;;;;2.57;0.70;;;;;;;7.22;100.00;100185.09;5979416;29;20041;-75
2023/01/12 05:00:33;;;;;;;2.93;0.80;;;;;;;7.29;100.00;100197.59;5979788;29;20039;-75
2023/01/12 05:03:28;;;;;;;2.47;0.57;;;;;;;7.35;100.00;100196.22;5978962;29;20126;-76
2023/01/12 05:06:23;;;;;;;1.73;0.47;;;;;;;7.31;100.00;100189.56;5979318;29;20035;-76
2023/01/12 05:12:32;;;;;;;2.63;0.38;;;;;;;7.23;100.00;100179.69;5979099;29;20027;-76
2023/01/12 05:15:28;;;;;;;3.10;0.40;;;;;;;7.26;100.00;100178.56;5979606;29;20035;-75
2023/01/12 05:18:23;;;;;;;2.23;0.53;;;;;;;7.24;100.00;100177.88;5979679;29;20039;-75
2023/01/12 05:21:20;;;;;;;2.43;0.50;;;;;;;7.17;100.00;100162.59;5979593;29;20514;-74
2023/01/12 05:24:16;;;;;;;2.00;0.65;;;;;;;7.15;100.00;100163.72;5978066;29;20115;-75
2023/01/12 05:27:11;;;;;;;2.13;0.70;;;;;;;7.17;100.00;100173.16;5979125;29;20035;-75
2023/01/12 05:30:07;;;;;;;2.77;0.57;;;;;;;7.15;100.00;100169.81;5979560;29;20032;-74
2023/01/12 05:33:02;;;;;;;2.05;0.63;;;;;;;7.17;100.00;100162.59;5978361;29;20091;-74
2023/01/12 05:35:57;;;;;;;1.80;0.60;;;;;;;7.13;100.00;100158.59;5978446;29;20035;-73
2023/01/12 05:38:53;;;;;;;2.57;0.60;;;;;;;7.07;100.00;100145.97;5978491;29;20099;-74
2023/01/12 05:45:02;;;;;;;3.90;0.90;;;;;;;7.05;100.00;100140.00;5978968;28;20782;-74
2023/01/12 05:48:01;;;;;;;2.70;0.60;;;;;;;7.06;100.00;100146.09;5979322;29;20035;-74
2023/01/12 05:51:01;;;;;;;3.08;0.65;;;;;;;6.99;100.00;100123.88;5979149;29;20117;-73
2023/01/12 05:53:56;;;;;;;3.88;0.77;;;;;;;7.07;100.00;100122.22;5978278;29;20510;-73
2023/01/12 05:56:51;;;;;;;2.17;0.60;;;;;;;7.04;100.00;100125.16;5978832;29;20032;-74
2023/01/12 05:59:47;;;;;;;3.73;0.60;;;;;;;7.02;100.00;100113.06;5978899;29;20294;-73
2023/01/12 06:02:42;;;;;;;1.37;0.60;;;;;;;7.13;100.00;100119.06;5978400;29;20475;-75
2023/01/12 06:05:37;;;;;;;1.00;0.50;;;;;;;7.08;100.00;100101.97;5979135;29;20118;-73
2023/01/12 06:08:32;;;;;;;0.47;0.30;;;;;;;7.13;100.00;100111.13;5981670;28;20039;-75
2023/01/12 06:14:42;;;;;;;2.05;0.57;;;;;;;7.18;100.00;100095.72;5982759;29;20035;-75
2023/01/12 06:17:37;;;;;;;2.30;0.70;;;;;;;7.11;100.00;100092.00;5983367;29;20035;-75
2023/01/12 06:20:32;;;;;;;2.33;0.40;;;;;;;7.08;100.00;100094.91;5981858;28;20434;-75
2023/01/12 06:23:28;;;;;;;1.60;0.50;;;;;;;7.07;100.00;100087.97;5982444;29;20035;-76
2023/01/12 06:26:23;;;;;;;2.08;0.50;;;;;;;7.11;100.00;100084.09;5983162;29;20074;-73
2023/01/12 06:29:18;;;;;;;1.80;0.63;;;;;;;7.08;100.00;100084.38;5982971;29;20030;-74
2023/01/12 06:32:14;;;;;;;2.77;0.43;;;;;;;7.22;100.00;100091.03;5982576;29;20046;-74
2023/01/12 06:35:09;;;;;;;1.47;0.50;;;;;;;7.24;100.00;100080.31;5982849;29;20054;-76
2023/01/12 06:38:04;;;;;;;1.90;0.40;;;;;;;7.19;100.00;100086.88;5982996;28;20035;-73
2023/01/12 06:41:01;;;;;;;2.93;0.40;;;;;;;7.12;100.00;100069.13;5983009;29;20398;-73
2023/01/12 06:43:57;;;;;;;2.88;0.60;;;;;;;7.10;100.00;100061.31;5981687;28;20271;-74
2023/01/12 06:46:52;;;;;;;2.28;0.50;;;;;;;7.15;100.00;100063.53;5981442;29;20086;-74
2023/01/12 06:49:50;;;;;;;1.90;0.40;;;;;;;7.13;100.00;100061.06;5982558;29;20049;-73
2023/01/12 06:52:45;;;;;;;2.67;0.65;;;;;;;7.17;100.00;100070.31;5982011;29;20487;-74
2023/01/12 06:55:47;;;;;;;2.20;0.60;;;;;;;7.10;100.00;100045.50;5982481;29;20086;-74
2023/01/12 06:58:42;;;;;;;2.97;0.68;;;;;;;7.22;100.00;100063.81;5982491;29;20379;-73
2023/01/12 07:01:39;;;;;;;1.75;0.60;;;;;;;7.09;100.00;100020.09;5982223;29;20036;-72
2023/01/12 07:04:34;;;;;;;1.55;0.50;;;;;;;7.18;100.00;100050.91;5981547;29;20051;-75
2023/01/12 07:07:29;;;;;;;2.43;0.70;;;;;;;7.20;100.00;100054.22;5982218;29;20058;-73
2023/01/12 07:10:25;;;;;;;1.17;0.30;;;;;;;7.22;100.00;100042.72;5981872;29;20023;-75
2023/01/12 07:13:21;;;;;;;0.55;0.35;;;;;;;7.01;100.00;100009.44;5981983;29;20039;-75
2023/01/12 07:16:16;;;;;;;0.60;0.30;;;;;;;7.24;100.00;100031.06;5981326;29;20074;-74
2023/01/12 07:19:11;;;;;;;0.37;0.20;;;;;;;7.26;100.00;100025.63;5981590;28;20031;-74
2023/01/12 07:22:06;;;;;;;0.83;0.30;;;;;;;7.25;100.00;100010.81;5981306;29;20070;-75
2023/01/12 07:25:02;;;;;;;2.77;0.40;;;;;;;7.29;100.00;100012.16;5981796;29;20614;-76
2023/01/12 07:27:57;;;;;;;2.17;0.40;;;;;;;7.34;100.00;100002.03;5979297;28;20031;-73
2023/01/12 07:30:58;;;;;;;1.43;0.50;;;;;;;7.24;100.00;99982.75;5988089;28;20130;-76
2023/01/12 07:33:53;;;;;;;0.88;0.35;;;;;;;7.25;100.00;99981.78;5980373;28;20334;-75
2023/01/12 07:36:49;;;;;;;2.65;0.47;;;;;;;7.30;100.00;99971.66;5981719;29;20118;-75
2023/01/12 07:39:45;;;;;;;3.33;0.40;;;;;;;7.43;100.00;99977.44;5981509;29;20039;-76
2023/01/12 07:42:40;;;;;;;3.13;0.40;;;;;;;7.41;100.00;99968.84;5981014;29;20093;-76
2023/01/12 07:45:36;;;;;;;0.90;0.53;;;;;;;7.54;100.00;99979.88;5981488;28;20027;-76
2023/01/12 07:48:32;;;;;;;2.92;0.80;;;;;;;7.57;100.00;99974.34;5981102;29;20054;-75
2023/01/12 07:51:27;;;;;;;1.10;0.57;;;;;;;7.53;99.55;99952.66;5981328;29;20031;-73
2023/01/12 07:54:23;;;;;;;4.17;0.60;;;;;;;7.55;98.89;99939.34;5980447;29;20039;-77
2023/01/12 07:57:18;;;;;;;2.70;0.50;;;;;;;7.67;97.96;99949.56;5980055;29;20038;-75
2023/01/12 08:00:14;;;;;;;2.70;0.63;;;;;;;7.70;98.18;99948.44;5981093;29;20121;-75
2023/01/12 08:03:11;;;;;;;0.82;0.43;;;;;;;7.55;99.24;99934.06;5979439;29;20031;-73
2023/01/12 08:06:07;;;;;;;0.93;0.40;;;;;;;7.66;99.22;99955.00;5979645;29;20483;-74
2023/01/12 08:09:02;;;;;;;2.03;0.60;;;;;;;7.47;100.00;99920.78;5979872;29;20095;-73
2023/01/12 08:11:57;;;;;;;1.67;0.43;;;;;;;7.32;100.00;99911.69;5980336;29;20031;-73
2023/01/12 08:14:53;;;;;;;4.70;0.73;;;;;;;7.42;100.00;99928.31;5980468;29;20031;-75
2023/01/12 08:17:52;;;;;;;1.17;0.40;;;;;;;7.43;100.00;99922.88;5980008;29;20406;-74
2023/01/12 08:20:48;;;;;;;1.05;0.38;;;;;;;7.45;100.00;99901.63;5980167;28;20062;-72
2023/01/12 08:23:48;;;;;;;4.32;0.88;;;;;;;7.58;100.00;99918.78;5977556;28;20040;-76
2023/01/12 08:26:44;;;;;;;2.17;0.50;;;;;;;7.44;100.00;99892.06;5979718;29;20046;-75
2023/01/12 08:29:43;;;;;;;3.53;0.70;;;;;;;7.41;100.00;99889.72;5960526;28;20514;-76
2023/01/12 08:32:39;;;;;;;1.83;0.60;;;;;;;7.47;100.00;99910.25;5978559;29;20130;-72
2023/01/12 08:35:34;;;;;;;3.22;0.90;;;;;;;7.41;100.00;99890.56;5979737;29;20049;-76
2023/01/12 08:38:29;;;;;;;1.17;0.47;;;;;;;7.50;100.00;99913.41;5978955;29;20035;-72
2023/01/12 08:41:31;;;;;;;2.15;0.40;;;;;;;7.43;100.00;99896.50;5979879;29;20039;-71
2023/01/12 08:44:31;;;;;;;2.30;0.50;;;;;;;7.45;100.00;99894.53;5978908;28;20065;-70
2023/01/12 08:47:29;;;;;;;;;;;;;;;7.56;100.00;99917.25;5980102;29;20035;-71
2023/01/12 08:50:24;;;;;;;1.35;0.57;;;;;;;7.44;100.00;99895.53;5979378;29;19960;-71
2023/01/12 08:53:19;;;;;;;0.73;0.20;;;;;;;7.43;100.00;99895.66;5978269;29;20039;-71
2023/01/12 08:56:14;;;;;;;2.40;0.50;;;;;;;7.38;100.00;99896.13;5978875;29;20039;-72
2023/01/12 08:59:11;;;;;;;0.53;0.27;;;;;;;7.42;100.00;99897.47;5978851;28;20031;-71
2023/01/12 09:02:06;;;;;;;1.20;0.40;;;;;;;7.45;100.00;99896.34;5978797;29;20035;-71
2023/01/12 09:05:01;;;;;;;0.53;0.30;;;;;;;7.49;100.00;99895.94;5978844;29;20038;-72
2023/01/12 09:07:57;;;;;;;1.83;0.50;;;;;;;7.57;100.00;99892.53;5979744;29;20048;-72
2023/01/12 09:10:52;;;;;;;0.47;0.20;;;;;;;7.71;98.34;99871.78;5979150;29;20035;-72
2023/01/12 09:13:47;;;;;;;0.93;0.37;;;;;;;7.79;96.96;99869.22;5977894;28;20394;-71
2023/01/12 09:16:43;;;;;;;0.83;0.50;;;;;;;7.85;97.03;99893.34;5979726;29;20086;-72
2023/01/12 09:19:38;;;;;;;0.90;0.20;;;;;;;7.88;95.83;99891.22;5979289;29;20808;-71
2023/01/12 09:22:33;;;;;;;2.10;0.20;;;;;;;7.91;95.74;99895.41;5979310;29;20031;-72
2023/01/12 09:25:29;;;;;;;1.50;0.43;;;;;;;8.01;95.53;99902.28;5978303;28;20505;-73
2023/01/12 09:28:24;;;;;;;1.03;0.40;;;;;;;8.06;94.56;99886.81;5979209;29;20043;-72
2023/01/12 09:31:21;;;;;;;18.73;2.03;;;;;;;8.07;94.63;99883.19;5978824;29;20039;-72
2023/01/12 09:34:16;;;;;;;1.02;0.20;;;;;;;8.05;94.83;99873.75;5977155;29;20283;-73
2023/01/12 09:37:11;;;;;;;0.63;0.23;;;;;;;8.14;94.79;99892.19;5979614;29;20032;-72
2023/01/12 09:40:09;;;;;;;0.73;0.40;;;;;;;8.14;94.29;99878.13;5979338;29;20298;-71
2023/01/12 09:49:46;;;;;;;0.20;0.10;;;;;;;8.25;94.11;99899.88;5969099;29;20122;-72
2023/01/12 09:52:47;;;;;;;0.20;0.20;;;;;;;8.20;94.10;99883.66;5966006;29;20043;-73
2023/01/12 09:55:51;;;;;;;1.65;0.13;;;;;;;8.36;93.23;99883.84;5982538;29;20126;-72
2023/01/12 09:59:20;;;;;;;0.25;0.10;;;;;;;8.53;92.23;99889.25;5966202;29;20483;-73
2023/01/12 10:02:16;;;;;;;0.10;0.10;;;;;;;8.58;91.93;99887.81;5983260;29;20054;-72
2023/01/12 10:05:25;;;;;;;0.55;0.28;;;;;;;8.75;91.77;99900.13;5983047;29;20039;-71
2023/01/12 10:08:28;;;;;;;0.10;0.10;;;;;;;8.79;91.80;99901.50;5983514;29;20046;-73
2023/01/12 10:11:27;;;;;;;0.22;0.10;;;;;;;8.82;91.89;99895.06;5982881;29;20461;-73
2023/01/12 10:14:27;;;;;;;0.70;0.30;;;;;;;8.86;90.98;99899.88;5982002;29;20043;-73
2023/01/12 10:17:35;;;;;;;1.02;0.40;;;;;;;8.91;90.77;99883.56;5981911;29;20517;-73
2023/01/12 10:20:36;;;;;;;1.77;0.40;;;;;;;8.96;89.92;99898.00;5962690;29;20031;-72
2023/01/12 10:23:32;;;;;;;0.20;0.10;;;;;;;9.01;90.74;99888.75;5982864;29;20035;-73
2023/01/12 10:26:37;;;;;;;1.40;0.20;;;;;;;9.05;90.38;99901.47;5983406;29;20031;-72
2023/01/12 10:29:32;;;;;;;0.75;0.20;;;;;;;9.02;90.67;99908.91;5983126;29;20079;-71
2023/01/12 10:32:27;;;;;;;0.20;0.00;;;;;;;8.70;91.11;99854.00;5964953;29;20364;-72
2023/01/12 10:35:24;;;;;;;1.70;0.23;;;;;;;8.95;91.66;99885.75;5982443;28;20499;-73
2023/01/12 10:38:27;;;;;;;0.35;0.17;;;;;;;9.03;91.96;99899.97;5965421;29;20487;-71
2023/01/12 10:41:25;;;;;;;0.20;0.10;;;;;;;9.02;91.61;99879.84;5982250;29;20074;-73
2023/01/12 10:44:20;;;;;;;0.73;0.22;;;;;;;9.01;92.17;99894.88;5987298;28;20034;-73
2023/01/12 10:47:16;;;;;;;0.17;0.17;;;;;;;8.96;92.17;99881.28;5971201;29;20134;-73
2023/01/12 10:50:19;;;;;;;0.00;0.00;;;;;;;8.95;92.42;99872.53;5965737;29;20474;-72
2023/01/12 10:53:16;;;;;;;0.68;0.20;;;;;;;9.08;92.72;99890.59;5969754;28;20047;-72
2023/01/12 10:56:34;;;;;;;0.38;0.28;;;;;;;9.07;92.52;99894.25;5982536;29;20062;-71
2023/01/12 10:59:32;;;;;;;2.05;1.52;;;;;;;9.05;93.04;99880.34;5964522;29;20035;-73
2023/01/12 11:02:41;;;;;;;0.22;0.20;;;;;;;9.11;92.94;99890.28;5983342;28;20075;-71
2023/01/12 11:05:37;;;;;;;0.50;0.30;;;;;;;9.15;93.28;99896.94;5979441;28;20110;-71
2023/01/12 11:08:32;;;;;;;0.57;0.30;;;;;;;9.24;92.94;99895.97;5982156;28;20084;-73
2023/01/12 11:11:32;;;;;;;0.50;0.30;;;;;;;9.19;93.28;99886.84;5982242;29;20035;-72
2023/01/12 11:14:36;;;;;;;2.63;0.32;;;;;;;9.18;93.90;99886.03;5981508;29;20023;-73
2023/01/12 11:18:03;;;;;;;0.40;0.20;;;;;;;9.12;94.40;99891.97;5981643;29;20111;-74
2023/01/12 11:21:04;;;;;;;0.20;0.15;;;;;;;9.16;94.14;99866.84;5981855;29;20035;-72
2023/01/12 11:24:18;;;;;;;0.50;0.10;;;;;;;9.11;94.21;99877.06;5964282;29;20039;-71
2023/01/12 11:27:26;;;;;;;0.00;0.00;;;;;;;9.31;94.37;99886.44;5981650;29;20494;-70
2023/01/12 11:30:30;;;;;;;3.05;0.32;;;;;;;9.33;94.34;99873.03;5981354;29;20094;-72
2023/01/12 11:33:27;;;;;;;0.28;0.10;;;;;;;9.37;94.17;99885.81;5963629;29;20499;-73
2023/01/12 11:36:26;;;;;;;0.63;0.15;;;;;;;9.18;95.03;99880.75;5964520;29;20035;-73
2023/01/12 11:39:23;;;;;;;0.13;0.13;;;;;;;9.19;96.64;99890.34;5973496;29;20085;-73
2023/01/12 11:46:25;;;;;;;0.22;0.20;;;;;;;9.13;97.98;99882.22;5973066;28;20158;-71
2023/01/12 11:49:30;;;;;;;0.47;0.10;;;;;;;9.03;99.03;99873.53;5973790;29;20050;-72
2023/01/12 11:52:26;;;;;;;0.80;0.32;;;;;;;9.03;99.45;99874.38;5963450;29;20089;-72
2023/01/12 11:55:36;;;;;;;1.45;0.45;;;;;;;9.08;99.13;99879.22;5980963;29;20043;-72
2023/01/12 11:58:59;;;;;;;0.40;0.30;;;;;;;9.13;98.72;99875.09;5964026;29;20036;-73
2023/01/12 12:02:31;;;;;;;0.20;0.20;;;;;;;9.18;98.45;99880.75;5972363;29;20056;-72
2023/01/12 12:05:37;;;;;;;0.13;0.10;;;;;;;9.26;98.42;99880.78;5980344;28;20023;-71
2023/01/12 12:08:54;;;;;;;0.10;0.10;;;;;;;9.26;97.74;99875.50;5980983;29;20117;-73
2023/01/12 12:12:02;;;;;;;1.65;0.40;;;;;;;9.28;98.40;99867.41;5963284;29;20035;-73
2023/01/12 12:15:14;;;;;;;0.10;0.10;;;;;;;9.25;98.68;99870.34;5980402;28;20109;-71
2023/01/12 12:18:16;;;;;;;0.38;0.28;;;;;;;9.17;99.21;99876.44;5963217;29;20038;-73
2023/01/12 12:21:32;;;;;;;0.50;0.30;;;;;;;9.13;100.00;99869.78;5963282;29;20382;-73
2023/01/12 12:24:56;;;;;;;0.30;0.30;;;;;;;9.20;99.55;99877.94;5963114;29;20027;-72
2023/01/12 12:28:11;;;;;;;1.20;0.40;;;;;;;9.26;99.46;99872.84;5963044;29;20058;-74
2023/01/12 12:31:32;;;;;;;0.85;0.45;;;;;;;9.30;99.16;99871.53;5969710;29;20049;-73
2023/01/12 12:34:42;;;;;;;0.70;0.30;;;;;;;9.36;98.94;99873.56;5979453;29;20039;-71
2023/01/12 12:37:46;;;;;;;0.20;0.20;;;;;;;9.36;98.20;99859.50;5979955;29;20046;-72
2023/01/12 12:48:14;;;;;;;1.13;0.40;;;;;;;9.45;98.98;99851.44;5965422;29;20110;-71
2023/01/12 12:51:10;;;;;;;0.10;0.10;;;;;;;9.41;99.49;99865.13;5979599;29;20090;-72
2023/01/12 12:54:12;;;;;;;0.52;0.40;;;;;;;9.46;99.78;99868.97;5962106;29;20031;-74
2023/01/12 12:57:15;;;;;;;0.45;0.20;;;;;;;9.39;100.00;99849.44;5962674;29;20398;-72
2023/01/12 13:00:28;;;;;;;2.97;0.60;;;;;;;9.34;100.00;99854.38;5979902;29;20024;-72
2023/01/12 13:03:38;;;;;;;1.08;0.68;;;;;;;9.43;100.00;99861.34;5979312;29;20039;-72
2023/01/12 13:06:43;;;;;;;1.67;0.50;;;;;;;9.38;100.00;99857.50;5979215;29;20118;-72
2023/01/12 13:09:39;;;;;;;1.27;0.80;;;;;;;9.39;100.00;99872.41;5979789;29;20067;-72
2023/01/12 13:12:35;;;;;;;0.95;0.30;;;;;;;9.32;100.00;99850.22;5978371;29;20054;-71
2023/01/12 13:15:35;;;;;;;0.93;0.60;;;;;;;9.43;100.00;99861.34;5979254;28;20483;-72
2023/01/12 13:18:53;;;;;;;1.55;0.30;;;;;;;9.43;100.00;99848.09;5962908;29;20046;-73
2023/01/12 13:21:57;;;;;;;1.00;0.50;;;;;;;9.39;100.00;99843.31;5975856;28;20135;-71
2023/01/12 13:24:56;;;;;;;1.05;0.50;;;;;;;9.44;100.00;99855.06;5978348;29;20070;-71
2023/01/12 13:28:03;;;;;;;0.65;0.43;;;;;;;9.48;100.00;99856.38;5979219;29;20471;-71
2023/01/12 13:31:01;;;;;;;0.80;0.35;;;;;;;9.43;100.00;99858.69;5979442;29;20054;-70
2023/01/12 13:34:30;;;;;;;0.55;0.30;;;;;;;9.47;100.00;99852.09;5978278;29;20043;-73
2023/01/12 13:37:49;;;;;;;1.08;0.40;;;;;;;9.52;100.00;99857.75;5968805;29;20196;-71
2023/01/12 13:40:45;;;;;;;2.30;0.30;;;;;;;9.52;100.00;99846.31;5961033;29;20031;-72
2023/01/12 13:43:46;;;;;;;1.85;0.45;;;;;;;9.63;100.00;99855.78;5977704;29;20027;-71
2023/01/12 13:46:45;;;;;;;1.05;0.22;;;;;;;9.57;100.00;99839.56;5974946;29;20735;-72
2023/01/12 13:49:50;;;;;;;0.25;0.25;;;;;;;9.62;100.00;99852.31;5961559;29;20098;-73
2023/01/12 13:52:56;;;;;;;0.52;0.20;;;;;;;9.67;100.00;99849.19;5958936;29;20182;-73
2023/01/12 13:55:59;;;;;;;1.30;0.40;;;;;;;9.71;100.00;99861.94;5978498;29;20393;-73
2023/01/12 13:59:03;;;;;;;0.50;0.30;;;;;;;9.74;100.00;99861.63;5978287;29;20039;-72
2023/01/12 14:01:58;;;;;;;0.52;0.40;;;;;;;9.80;100.00;99870.72;5977333;29;20138;-74
2023/01/12 14:05:11;;;;;;;0.57;0.40;;;;;;;9.80;100.00;99876.03;5978436;29;20039;-72
2023/01/12 14:08:33;;;;;;;1.08;0.40;;;;;;;9.73;100.00;99869.72;5960601;29;20308;-72
2023/01/12 14:11:47;;;;;;;0.20;0.20;;;;;;;9.78;100.00;99854.19;5967256;28;20102;-72
2023/01/12 14:18:40;;;;;;;0.52;0.30;;;;;;;9.91;100.00;99862.47;5972916;29;20043;-71
2023/01/12 14:21:36;;;;;;;0.50;0.20;;;;;;;9.85;100.00;99873.72;5978837;29;20027;-72
2023/01/12 14:24:32;;;;;;;1.02;0.55;;;;;;;9.83;100.00;99875.72;5975456;29;20049;-73
2023/01/12 14:27:27;;;;;;;0.82;0.45;;;;;;;9.80;100.00;99868.09;5980542;28;20035;-72
2023/01/12 14:30:24;;;;;;;1.10;0.50;;;;;;;9.83;100.00;99881.84;5991736;28;20035;-73
2023/01/12 14:33:22;;;;;;;0.60;0.35;;;;;;;9.78;100.00;99872.72;5964880;29;20086;-72
2023/01/12 14:36:29;;;;;;;0.73;0.43;;;;;;;9.66;100.00;99877.47;5982583;29;20054;-73
2023/01/12 14:39:25;;;;;;;;;;;;;;;9.69;100.00;99881.63;5965563;29;20031;-71
2023/01/12 14:49:00;;;;;;;1.40;0.80;;;;;;;9.42;100.00;99866.81;5974375;29;20047;-72
2023/01/12 14:52:15;;;;;;;1.20;0.77;;;;;;;9.43;100.00;99874.56;5979715;29;20039;-73
2023/01/12 14:55:25;;;;;;;0.82;0.50;;;;;;;9.43;100.00;99885.16;5965474;29;20047;-72
2023/01/12 14:58:21;;;;;;;2.95;0.55;;;;;;;9.41;100.00;99879.19;5982046;29;20114;-72
2023/01/12 15:01:31;;;;;;;1.20;0.65;;;;;;;9.37;100.00;99882.34;5982323;29;20027;-71